createdAt,value
2022-08-27T00:01:37.872Z,17.81
2022-08-27T00:04:04.836Z,17.83
2022-08-27T00:06:31.929Z,17.82
2022-08-27T00:08:59.949Z,17.81
2022-08-27T00:11:26.918Z,17.81
2022-08-27T00:13:54.395Z,17.81
2022-08-27T00:16:21.487Z,17.78
2022-08-27T00:18:48.770Z,17.81
2022-08-27T00:21:17.683Z,17.80
2022-08-27T00:23:44.909Z,17.84
2022-08-27T00:26:13.995Z,17.79
2022-08-27T00:28:41.731Z,17.83
2022-08-27T00:31:12.366Z,17.82
2022-08-27T00:33:40.064Z,17.80
2022-08-27T00:36:08.602Z,17.77
2022-08-27T00:38:37.360Z,17.76
2022-08-27T00:41:08.673Z,17.73
2022-08-27T00:43:53.665Z,17.76
2022-08-27T00:46:53.230Z,17.72
2022-08-27T00:50:07.827Z,17.70
2022-08-27T00:52:45.458Z,17.71
2022-08-27T00:55:18.543Z,17.68
2022-08-27T00:57:51.212Z,17.67
2022-08-27T01:00:20.138Z,17.66
2022-08-27T01:02:48.339Z,17.70
2022-08-27T01:05:26.329Z,17.71
2022-08-27T01:08:04.481Z,17.66
2022-08-27T01:10:32.455Z,17.65
2022-08-27T01:12:59.483Z,17.70
2022-08-27T01:15:30.757Z,17.68
2022-08-27T01:17:58.519Z,17.68
2022-08-27T01:20:36.007Z,17.69
2022-08-27T01:23:31.955Z,17.67
2022-08-27T01:26:02.801Z,17.69
2022-08-27T01:28:35.930Z,17.61
2022-08-27T01:31:10.612Z,17.62
2022-08-27T01:33:38.182Z,17.61
2022-08-27T01:36:07.829Z,17.57
2022-08-27T01:38:34.904Z,17.59
2022-08-27T01:41:03.555Z,17.62
2022-08-27T01:43:31.723Z,17.56
2022-08-27T01:45:58.852Z,17.53
2022-08-27T01:48:25.952Z,17.56
2022-08-27T01:50:53.043Z,17.57
2022-08-27T01:53:24.231Z,17.54
2022-08-27T01:55:53.620Z,17.57
2022-08-27T01:58:26.688Z,17.54
2022-08-27T02:00:58.020Z,17.52
2022-08-27T02:03:26.871Z,17.51
2022-08-27T02:05:54.481Z,17.52
2022-08-27T02:08:21.701Z,17.54
2022-08-27T02:10:50.491Z,17.52
2022-08-27T02:13:18.901Z,17.52
2022-08-27T02:15:46.859Z,17.45
2022-08-27T02:18:15.123Z,17.51
2022-08-27T02:20:45.133Z,17.49
2022-08-27T02:23:13.328Z,17.50
2022-08-27T02:25:41.486Z,17.49
2022-08-27T02:28:09.489Z,17.50
2022-08-27T02:30:37.536Z,17.46
2022-08-27T02:33:05.787Z,17.47
2022-08-27T02:35:38.696Z,17.46
2022-08-27T02:38:07.629Z,17.45
2022-08-27T02:40:34.928Z,17.47
2022-08-27T02:43:01.973Z,17.46
2022-08-27T02:45:29.003Z,17.45
2022-08-27T02:47:56.087Z,17.45
2022-08-27T02:50:27.483Z,17.42
2022-08-27T02:52:54.871Z,17.39
2022-08-27T02:55:22.882Z,17.41
2022-08-27T02:57:50.088Z,17.36
2022-08-27T03:00:20.800Z,17.41
2022-08-27T03:02:48.313Z,17.38
2022-08-27T03:05:18.137Z,17.36
2022-08-27T03:07:46.164Z,17.31
2022-08-27T03:10:17.192Z,17.35
2022-08-27T03:12:44.722Z,17.36
2022-08-27T03:15:16.096Z,17.33
2022-08-27T03:18:01.934Z,17.37
2022-08-27T03:20:29.703Z,17.34
2022-08-27T03:22:56.669Z,17.27
2022-08-27T03:25:24.172Z,17.23
2022-08-27T03:27:51.157Z,17.17
2022-08-27T03:30:22.660Z,17.10
2022-08-27T03:32:50.194Z,17.03
2022-08-27T03:35:17.672Z,16.96
2022-08-27T03:37:44.706Z,16.92
2022-08-27T03:40:13.514Z,16.90
2022-08-27T03:42:42.023Z,16.80
2022-08-27T03:45:11.068Z,16.75
2022-08-27T03:47:38.607Z,16.76
2022-08-27T03:50:08.163Z,16.72
2022-08-27T03:52:36.661Z,16.68
2022-08-27T03:55:07.464Z,16.70
2022-08-27T03:57:34.423Z,16.66
2022-08-27T04:00:01.447Z,16.64
2022-08-27T04:02:28.782Z,16.63
2022-08-27T04:04:57.637Z,16.61
2022-08-27T04:07:24.803Z,16.59
2022-08-27T04:09:51.777Z,16.62
2022-08-27T04:12:18.872Z,16.59
2022-08-27T04:14:45.797Z,16.62
2022-08-27T04:17:12.982Z,16.60
2022-08-27T04:19:39.911Z,16.62
2022-08-27T04:22:08.060Z,16.58
2022-08-27T04:24:37.720Z,16.61
2022-08-27T04:27:06.481Z,16.59
2022-08-27T04:29:34.220Z,16.60
2022-08-27T04:32:02.046Z,16.58
2022-08-27T04:34:30.100Z,16.59
2022-08-27T04:36:57.992Z,16.58
2022-08-27T04:39:28.153Z,16.61
2022-08-27T04:41:59.288Z,16.62
2022-08-27T04:44:29.416Z,16.63
2022-08-27T04:47:00.330Z,16.63
2022-08-27T04:49:29.015Z,16.65
2022-08-27T04:51:58.208Z,16.61
2022-08-27T04:54:32.874Z,16.66
2022-08-27T04:57:01.127Z,16.64
2022-08-27T04:59:28.087Z,16.62
2022-08-27T05:01:55.064Z,16.61
2022-08-27T05:04:22.049Z,16.59
2022-08-27T05:06:50.605Z,16.54
2022-08-27T05:09:21.592Z,16.54
2022-08-27T05:11:53.924Z,16.44
2022-08-27T05:14:22.103Z,16.42
2022-08-27T05:16:49.046Z,16.38
2022-08-27T05:19:16.182Z,16.35
2022-08-27T05:21:49.893Z,16.39
2022-08-27T05:24:18.263Z,16.39
2022-08-27T05:26:46.506Z,16.36
2022-08-27T05:29:14.276Z,16.36
2022-08-27T05:31:42.514Z,16.37
2022-08-27T05:34:18.730Z,16.41
2022-08-27T05:36:49.426Z,16.44
2022-08-27T05:39:17.743Z,16.44
2022-08-27T05:41:44.693Z,16.53
2022-08-27T05:44:40.159Z,16.51
2022-08-27T05:46:59.023Z,16.58
2022-08-27T05:49:25.961Z,16.61
2022-08-27T05:51:52.903Z,16.65
2022-08-27T05:54:20.150Z,16.68
2022-08-27T05:56:49.731Z,16.73
2022-08-27T05:59:35.393Z,16.76
2022-08-27T06:02:05.936Z,16.83
2022-08-27T06:04:32.873Z,16.85
2022-08-27T06:06:59.823Z,16.87
2022-08-27T06:09:31.564Z,16.93
2022-08-27T06:12:02.449Z,17.01
2022-08-27T06:14:30.130Z,17.04
2022-08-27T06:16:58.516Z,17.08
2022-08-27T06:19:25.443Z,17.14
2022-08-27T06:22:00.743Z,17.20
2022-08-27T06:24:39.725Z,17.23
2022-08-27T06:27:08.383Z,17.28
2022-08-27T06:29:35.381Z,17.33
2022-08-27T06:32:02.542Z,17.36
2022-08-27T06:34:29.737Z,17.39
2022-08-27T06:36:56.909Z,17.47
2022-08-27T06:39:23.852Z,17.56
2022-08-27T06:41:50.775Z,17.62
2022-08-27T06:44:18.263Z,17.68
2022-08-27T06:46:45.387Z,17.78
2022-08-27T06:49:13.539Z,17.79
2022-08-27T06:51:45.619Z,17.91
2022-08-27T06:54:14.270Z,18.01
2022-08-27T06:56:44.332Z,18.06
2022-08-27T06:59:15.784Z,18.17
2022-08-27T07:01:47.158Z,18.45
2022-08-27T07:04:21.467Z,18.95
2022-08-27T07:06:49.396Z,19.18
2022-08-27T07:09:20.460Z,19.55
2022-08-27T07:11:47.744Z,19.87
2022-08-27T07:14:14.763Z,20.28
2022-08-27T07:16:43.083Z,20.63
2022-08-27T07:19:12.227Z,20.82
2022-08-27T07:21:39.853Z,21.28
2022-08-27T07:24:09.036Z,21.35
2022-08-27T07:26:41.148Z,21.67
2022-08-27T07:29:10.659Z,21.69
2022-08-27T07:31:38.716Z,21.86
2022-08-27T07:34:07.108Z,21.77
2022-08-27T07:36:35.580Z,21.89
2022-08-27T07:39:02.608Z,21.90
2022-08-27T07:41:32.260Z,21.68
2022-08-27T07:44:18.928Z,21.66
2022-08-27T07:46:48.705Z,21.71
2022-08-27T07:49:18.087Z,21.69
2022-08-27T07:51:45.969Z,21.56
2022-08-27T07:54:13.404Z,21.46
2022-08-27T07:56:40.835Z,21.23
2022-08-27T07:59:08.221Z,21.14
2022-08-27T08:01:35.663Z,21.08
2022-08-27T08:04:03.036Z,20.88
2022-08-27T08:06:30.312Z,20.88
2022-08-27T08:08:58.539Z,20.84
2022-08-27T08:11:26.332Z,20.82
2022-08-27T08:13:53.325Z,20.61
2022-08-27T08:16:20.858Z,20.81
2022-08-27T08:18:47.801Z,20.86
2022-08-27T08:21:15.396Z,20.81
2022-08-27T08:23:43.923Z,20.79
2022-08-27T08:26:12.569Z,20.91
2022-08-27T08:28:40.772Z,20.80
2022-08-27T08:31:08.058Z,20.82
2022-08-27T08:33:36.679Z,20.75
2022-08-27T08:36:11.360Z,20.81
2022-08-27T08:38:39.320Z,20.87
2022-08-27T08:41:22.648Z,21.09
2022-08-27T08:43:51.634Z,21.11
2022-08-27T08:46:31.119Z,21.27
2022-08-27T08:49:07.329Z,21.26
2022-08-27T08:51:41.511Z,21.31
2022-08-27T08:54:16.611Z,21.40
2022-08-27T08:57:10.597Z,21.46
2022-08-27T08:59:42.446Z,21.43
2022-08-27T09:02:14.463Z,21.44
2022-08-27T09:04:44.459Z,21.52
2022-08-27T09:07:45.702Z,21.58
2022-08-27T09:10:48.523Z,21.76
2022-08-27T09:13:34.324Z,21.96
2022-08-27T09:16:05.077Z,21.94
2022-08-27T09:18:37.292Z,22.29
2022-08-27T09:21:28.271Z,22.61
2022-08-27T09:24:28.677Z,22.57
2022-08-27T09:26:55.660Z,22.53
2022-08-27T09:29:28.092Z,22.30
2022-08-27T09:32:00.914Z,22.02
2022-08-27T09:34:39.055Z,22.10
2022-08-27T09:37:20.852Z,21.68
2022-08-27T09:39:56.483Z,21.79
2022-08-27T09:42:39.079Z,21.72
2022-08-27T09:45:14.898Z,21.67
2022-08-27T09:47:55.422Z,21.55
2022-08-27T09:50:35.210Z,21.71
2022-08-27T09:53:02.150Z,21.67
2022-08-27T09:55:34.891Z,21.83
2022-08-27T09:58:06.262Z,22.00
2022-08-27T10:00:39.330Z,21.94
2022-08-27T10:03:09.602Z,21.92
2022-08-27T10:05:51.644Z,21.66
2022-08-27T10:08:36.031Z,21.78
2022-08-27T10:11:19.013Z,21.62
2022-08-27T10:14:01.322Z,21.87
2022-08-27T10:16:55.710Z,21.31
2022-08-27T10:19:57.944Z,21.59
2022-08-27T10:22:57.954Z,21.47
2022-08-27T10:25:43.670Z,21.28
2022-08-27T10:28:41.231Z,21.20
2022-08-27T10:31:31.198Z,21.10
2022-08-27T10:34:43.355Z,21.22
2022-08-27T10:37:20.837Z,21.23
2022-08-27T10:40:10.157Z,21.26
2022-08-27T10:43:01.321Z,21.33
2022-08-27T10:45:47.263Z,21.32
2022-08-27T10:48:32.608Z,21.50
2022-08-27T10:51:16.491Z,21.63
2022-08-27T10:54:41.466Z,21.59
2022-08-27T10:57:59.019Z,21.37
2022-08-27T11:01:06.515Z,21.43
2022-08-27T11:03:48.260Z,21.57
2022-08-27T11:06:32.571Z,21.61
2022-08-27T11:09:11.129Z,21.60
2022-08-27T11:14:58.925Z,21.92
2022-08-27T11:17:34.676Z,22.33
2022-08-27T11:20:24.140Z,22.91
2022-08-27T11:23:13.124Z,23.29
2022-08-27T11:26:02.144Z,23.31
2022-08-27T11:28:41.912Z,23.29
2022-08-27T11:31:32.971Z,22.86
2022-08-27T11:34:22.951Z,22.63
2022-08-27T11:37:22.448Z,22.31
2022-08-27T11:40:02.499Z,22.21
2022-08-27T11:42:54.246Z,22.12
2022-08-27T11:45:30.915Z,22.04
2022-08-27T11:48:01.727Z,22.04
2022-08-27T11:50:31.164Z,21.99
2022-08-27T11:53:07.213Z,22.02
2022-08-27T11:55:38.632Z,22.13
2022-08-27T11:58:29.154Z,22.25
2022-08-27T12:01:03.753Z,22.08
2022-08-27T12:03:35.322Z,22.25
2022-08-27T12:06:08.876Z,22.22
2022-08-27T12:08:37.182Z,22.15
2022-08-27T12:11:35.899Z,22.33
2022-08-27T12:14:34.091Z,22.47
2022-08-27T12:17:19.239Z,22.63
2022-08-27T12:20:10.796Z,22.61
2022-08-27T12:23:40.791Z,22.62
2022-08-27T12:26:16.637Z,22.81
2022-08-27T12:28:43.653Z,22.74
2022-08-27T12:31:10.741Z,22.74
2022-08-27T12:33:48.135Z,22.80
2022-08-27T12:36:28.044Z,22.68
2022-08-27T12:38:59.106Z,22.60
2022-08-27T12:41:31.989Z,22.71
2022-08-27T12:44:12.596Z,22.71
2022-08-27T12:46:54.171Z,22.58
2022-08-27T12:49:38.787Z,22.58
2022-08-27T12:52:48.605Z,22.62
2022-08-27T12:56:17.807Z,22.65
2022-08-27T12:59:11.560Z,22.54
2022-08-27T13:01:56.924Z,22.63
2022-08-27T13:04:28.699Z,22.76
2022-08-27T13:06:55.688Z,22.60
2022-08-27T13:09:33.258Z,22.77
2022-08-27T13:12:02.523Z,22.77
2022-08-27T13:14:40.832Z,22.76
2022-08-27T13:17:16.076Z,22.75
2022-08-27T13:20:00.896Z,22.84
2022-08-27T13:22:40.022Z,22.97
2022-08-27T13:25:23.188Z,23.01
2022-08-27T13:28:07.881Z,22.82
2022-08-27T13:30:39.657Z,22.96
2022-08-27T13:33:20.146Z,23.01
2022-08-27T13:35:47.472Z,22.72
2022-08-27T13:38:16.379Z,22.76
2022-08-27T13:41:01.570Z,22.72
2022-08-27T13:43:38.904Z,22.81
2022-08-27T13:46:12.240Z,22.89
2022-08-27T13:48:45.817Z,22.64
2022-08-27T13:51:14.875Z,22.90
2022-08-27T13:54:07.785Z,22.91
2022-08-27T13:56:48.961Z,22.91
2022-08-27T13:59:19.604Z,22.96
2022-08-27T14:02:12.213Z,22.86
2022-08-27T14:05:04.535Z,22.92
2022-08-27T14:07:37.427Z,22.73
2022-08-27T14:10:35.245Z,22.60
2022-08-27T14:13:27.342Z,22.58
2022-08-27T14:15:58.054Z,22.56
2022-08-27T14:18:58.965Z,22.58
2022-08-27T14:21:21.905Z,22.47
2022-08-27T14:23:49.204Z,22.53
2022-08-27T14:26:17.278Z,22.37
2022-08-27T14:28:45.334Z,22.36
2022-08-27T14:31:13.975Z,22.39
2022-08-27T14:33:41.129Z,22.39
2022-08-27T14:36:09.311Z,22.40
2022-08-27T14:38:41.076Z,22.50
2022-08-27T14:41:08.685Z,22.48
2022-08-27T14:43:36.250Z,22.33
2022-08-27T14:46:06.507Z,22.51
2022-08-27T14:48:35.283Z,22.33
2022-08-27T14:51:13.625Z,22.26
2022-08-27T14:53:40.619Z,22.12
2022-08-27T14:56:07.640Z,22.20
2022-08-27T14:58:34.592Z,22.12
2022-08-27T15:01:03.842Z,22.21
2022-08-27T15:03:31.551Z,22.12
2022-08-27T15:05:58.540Z,22.23
2022-08-27T15:08:29.438Z,22.07
2022-08-27T15:10:59.214Z,22.09
2022-08-27T15:13:26.274Z,22.23
2022-08-27T15:15:53.305Z,22.18
2022-08-27T15:18:20.420Z,22.16
2022-08-27T15:20:47.562Z,22.01
2022-08-27T15:23:16.272Z,22.02
2022-08-27T15:25:46.475Z,22.11
2022-08-27T15:28:13.702Z,22.20
2022-08-27T15:30:41.121Z,21.95
2022-08-27T15:33:08.460Z,21.96
2022-08-27T15:35:35.455Z,21.91
2022-08-27T15:38:03.169Z,21.99
2022-08-27T15:40:35.267Z,22.09
2022-08-27T15:43:06.348Z,21.94
2022-08-27T15:45:33.907Z,21.85
2022-08-27T15:48:01.415Z,22.02
2022-08-27T15:50:30.207Z,22.11
2022-08-27T15:53:01.955Z,22.20
2022-08-27T15:55:33.804Z,22.25
2022-08-27T15:58:01.244Z,22.21
2022-08-27T16:00:33.534Z,22.24
2022-08-27T16:03:04.221Z,22.33
2022-08-27T16:05:36.508Z,22.30
2022-08-27T16:08:04.797Z,22.31
2022-08-27T16:10:32.055Z,22.21
2022-08-27T16:12:59.000Z,21.87
2022-08-27T16:15:26.063Z,21.89
2022-08-27T16:17:57.425Z,21.85
2022-08-27T16:20:25.739Z,21.74
2022-08-27T16:22:54.051Z,21.44
2022-08-27T16:25:23.255Z,21.49
2022-08-27T16:27:51.674Z,21.33
2022-08-27T16:30:19.917Z,21.37
2022-08-27T16:32:52.068Z,21.24
2022-08-27T16:35:20.496Z,21.29
2022-08-27T16:37:47.499Z,21.13
2022-08-27T16:40:15.367Z,21.00
2022-08-27T16:42:47.781Z,21.01
2022-08-27T16:45:17.268Z,20.99
2022-08-27T16:48:03.283Z,20.86
2022-08-27T16:50:34.477Z,20.84
2022-08-27T16:53:14.500Z,20.72
2022-08-27T16:55:43.632Z,20.67
2022-08-27T16:58:29.792Z,20.63
2022-08-27T17:01:04.199Z,20.49
2022-08-27T17:03:31.499Z,20.58
2022-08-27T17:05:58.891Z,20.60
2022-08-27T17:08:30.202Z,20.52
2022-08-27T17:10:57.708Z,20.39
2022-08-27T17:13:29.523Z,20.28
2022-08-27T17:15:57.770Z,20.26
2022-08-27T17:18:27.653Z,20.26
2022-08-27T17:20:56.979Z,20.32
2022-08-27T17:23:37.167Z,20.22
2022-08-27T17:26:07.964Z,20.14
2022-08-27T17:28:39.207Z,20.20
2022-08-27T17:31:10.420Z,20.14
2022-08-27T17:33:41.416Z,20.09
2022-08-27T17:36:10.408Z,20.00
2022-08-27T17:38:38.806Z,19.90
2022-08-27T17:41:33.647Z,19.92
2022-08-27T17:44:27.263Z,19.88
2022-08-27T17:46:58.407Z,19.81
2022-08-27T17:49:26.147Z,19.87
2022-08-27T17:52:00.814Z,19.74
2022-08-27T17:54:41.767Z,19.69
2022-08-27T17:57:25.071Z,19.65
2022-08-27T17:59:53.600Z,19.61
2022-08-27T18:02:36.610Z,19.45
2022-08-27T18:05:06.321Z,19.57
2022-08-27T18:07:36.687Z,19.44
2022-08-27T18:10:07.724Z,19.42
2022-08-27T18:12:34.705Z,19.30
2022-08-27T18:15:24.977Z,19.18
2022-08-27T18:17:53.518Z,19.28
2022-08-27T18:20:22.858Z,19.28
2022-08-27T18:22:50.139Z,19.24
2022-08-27T18:25:20.046Z,19.07
2022-08-27T18:27:51.007Z,19.01
2022-08-27T18:30:19.013Z,19.02
2022-08-27T18:32:46.101Z,19.00
2022-08-27T18:35:26.387Z,18.91
2022-08-27T18:37:54.037Z,18.82
2022-08-27T18:40:24.210Z,18.77
2022-08-27T18:42:51.763Z,18.71
2022-08-27T18:45:25.596Z,18.71
2022-08-27T18:47:55.491Z,18.62
2022-08-27T18:50:24.110Z,18.57
2022-08-27T18:52:54.390Z,18.51
2022-08-27T18:55:25.813Z,18.47
2022-08-27T18:57:52.814Z,18.44
2022-08-27T19:00:20.820Z,18.36
2022-08-27T19:02:52.523Z,18.40
2022-08-27T19:05:25.351Z,18.28
2022-08-27T19:07:54.104Z,18.30
2022-08-27T19:10:21.473Z,18.25
2022-08-27T19:12:48.613Z,18.16
2022-08-27T19:15:16.115Z,18.15
2022-08-27T19:17:49.289Z,18.06
2022-08-27T19:20:18.450Z,18.04
2022-08-27T19:22:47.920Z,17.99
2022-08-27T19:25:17.077Z,17.90
2022-08-27T19:27:46.168Z,17.88
2022-08-27T19:30:15.832Z,17.86
2022-08-27T19:32:43.540Z,17.81
2022-08-27T19:35:11.004Z,17.74
2022-08-27T19:37:52.625Z,17.64
2022-08-27T19:40:22.109Z,17.70
2022-08-27T19:42:50.541Z,17.58
2022-08-27T19:45:23.182Z,17.62
2022-08-27T19:47:52.760Z,17.45
2022-08-27T19:50:21.740Z,17.42
2022-08-27T19:52:49.624Z,17.45
2022-08-27T19:55:16.883Z,17.42
2022-08-27T19:57:45.341Z,17.32
2022-08-27T20:00:15.504Z,17.31
2022-08-27T20:02:42.614Z,17.18
2022-08-27T20:05:18.338Z,17.21
2022-08-27T20:07:48.751Z,17.14
2022-08-27T20:10:16.560Z,17.09
2022-08-27T20:12:43.875Z,17.04
2022-08-27T20:15:11.653Z,17.04
2022-08-27T20:17:39.930Z,16.99
2022-08-27T20:20:08.236Z,16.97
2022-08-27T20:22:35.201Z,16.92
2022-08-27T20:25:02.328Z,16.83
2022-08-27T20:27:29.251Z,16.80
2022-08-27T20:29:56.331Z,16.82
2022-08-27T20:32:29.249Z,16.76
2022-08-27T20:34:57.352Z,16.78
2022-08-27T20:37:24.408Z,16.70
2022-08-27T20:39:52.357Z,16.70
2022-08-27T20:42:19.949Z,16.64
2022-08-27T20:44:47.873Z,16.63
2022-08-27T20:47:16.470Z,16.60
2022-08-27T20:49:44.560Z,16.55
2022-08-27T20:52:12.862Z,16.52
2022-08-27T20:54:40.747Z,16.47
2022-08-27T20:57:08.768Z,16.44
2022-08-27T20:59:54.626Z,16.41
2022-08-27T21:02:28.338Z,16.38
2022-08-27T21:04:56.609Z,16.36
2022-08-27T21:07:25.333Z,16.31
2022-08-27T21:09:57.266Z,16.25
2022-08-27T21:12:30.925Z,16.21
2022-08-27T21:14:58.288Z,16.13
2022-08-27T21:17:28.320Z,16.12
2022-08-27T21:19:55.944Z,16.08
2022-08-27T21:22:25.158Z,16.05
2022-08-27T21:24:53.363Z,15.91
2022-08-27T21:27:21.749Z,15.94
2022-08-27T21:29:49.775Z,15.93
2022-08-27T21:32:17.592Z,15.91
2022-08-27T21:34:45.369Z,15.80
2022-08-27T21:37:14.597Z,15.70
2022-08-27T21:39:43.444Z,15.78
2022-08-27T21:42:12.406Z,15.66
2022-08-27T21:44:40.092Z,15.66
2022-08-27T21:47:07.336Z,15.59
2022-08-27T21:49:35.352Z,15.61
2022-08-27T21:52:05.907Z,15.59
2022-08-27T21:54:36.212Z,15.54
2022-08-27T21:57:04.358Z,15.54
2022-08-27T21:59:32.996Z,15.49
2022-08-27T22:02:01.285Z,15.47
2022-08-27T22:04:30.741Z,15.45
2022-08-27T22:06:59.467Z,15.43
2022-08-27T22:09:27.423Z,15.37
2022-08-27T22:11:54.977Z,15.37
2022-08-27T22:14:22.184Z,15.32
2022-08-27T22:16:49.843Z,15.25
2022-08-27T22:19:17.365Z,15.22
2022-08-27T22:21:44.532Z,15.22
2022-08-27T22:24:11.829Z,15.23
2022-08-27T22:26:38.780Z,15.16
2022-08-27T22:29:06.156Z,15.09
2022-08-27T22:31:33.620Z,15.02
2022-08-27T22:34:02.304Z,15.09
2022-08-27T22:36:29.531Z,15.07
2022-08-27T22:38:59.786Z,14.96
2022-08-27T22:41:32.547Z,15.00
2022-08-27T22:43:59.948Z,14.90
2022-08-27T22:46:27.392Z,14.87
2022-08-27T22:48:54.397Z,14.79
2022-08-27T22:51:22.064Z,14.78
2022-08-27T22:53:49.027Z,14.74
2022-08-27T22:56:15.946Z,14.74
2022-08-27T22:58:45.857Z,14.68
2022-08-27T23:01:18.192Z,14.71
2022-08-27T23:03:45.195Z,14.64
2022-08-27T23:06:12.475Z,14.60
2022-08-27T23:08:40.203Z,14.57
2022-08-27T23:11:07.190Z,14.54
2022-08-27T23:13:34.670Z,14.47
2022-08-27T23:16:05.812Z,14.45
2022-08-27T23:18:33.267Z,14.40
2022-08-27T23:21:00.265Z,14.38
2022-08-27T23:23:29.791Z,14.37
2022-08-27T23:26:17.075Z,14.35
2022-08-27T23:28:44.872Z,14.32
2022-08-27T23:31:12.938Z,14.33
2022-08-27T23:33:40.836Z,14.27
2022-08-27T23:36:09.292Z,14.28
2022-08-27T23:38:36.573Z,14.21
2022-08-27T23:41:03.948Z,14.21
2022-08-27T23:43:30.937Z,14.18
2022-08-27T23:45:57.826Z,14.21
2022-08-27T23:48:24.865Z,14.17
2022-08-27T23:50:51.938Z,14.11
2022-08-27T23:53:18.977Z,14.09
2022-08-27T23:55:45.935Z,14.03
2022-08-27T23:58:13.354Z,13.98
